Macia, Argentina
Current Conditions -  °F | °C
As of 11:00 AM on Saturday 20 Dec 2014 (Local Time) from SAAR Reporting Station
Overcast Overcast  
Wind Chill: 19°   Ceiling: 1000
Heat Index: 19°   Visibility: 6mi
Dew Point: 19°   Wind: 8mph
Humidity: 100%   Direction: 110°ESE
Pressure: 29.53"   Gusts: NA
Location:  32.17°S, 59.38°W
Report Text: SAAR 201400Z 11007KT 9999 BKN010 OVC01419/19 Q1000
Loading
Personal Weather Stations






























Interactive Weather Map New forecast layout! Learn more

10-Day Weather Forecast

Advertisements
Track Severe Weather on mobile